sensor_id;sensor_type;location;lat;lon;timestamp;temperature;humidity
51801;DHT22;37855;53.204;6.568;2022-09-09T00:09:26;16.30;99.90
51801;DHT22;37855;53.204;6.568;2022-09-09T00:12:08;16.30;99.90
51801;DHT22;37855;53.204;6.568;2022-09-09T00:14:54;16.30;99.90
51801;DHT22;37855;53.204;6.568;2022-09-09T00:22:29;16.20;99.90
51801;DHT22;37855;53.204;6.568;2022-09-09T00:25:08;16.20;99.90
51801;DHT22;37855;53.204;6.568;2022-09-09T00:27:45;16.10;99.90
51801;DHT22;37855;53.204;6.568;2022-09-09T00:30:23;16.20;99.90
51801;DHT22;37855;53.204;6.568;2022-09-09T00:32:53;16.10;99.90
51801;DHT22;37855;53.204;6.568;2022-09-09T00:35:26;16.10;99.90
51801;DHT22;37855;53.204;6.568;2022-09-09T00:37:56;16.00;99.90
51801;DHT22;37855;53.204;6.568;2022-09-09T00:40:27;16.00;99.90
51801;DHT22;37855;53.204;6.568;2022-09-09T00:54:27;15.90;99.90
51801;DHT22;37855;53.204;6.568;2022-09-09T00:57:05;15.90;99.90
51801;DHT22;37855;53.204;6.568;2022-09-09T01:05:24;15.80;99.90
51801;DHT22;37855;53.204;6.568;2022-09-09T01:07:52;15.80;99.90
51801;DHT22;37855;53.204;6.568;2022-09-09T01:13:35;15.70;99.90
51801;DHT22;37855;53.204;6.568;2022-09-09T01:16:03;15.80;99.90
51801;DHT22;37855;53.204;6.568;2022-09-09T01:18:33;15.80;99.90
51801;DHT22;37855;53.204;6.568;2022-09-09T01:26:41;15.70;99.90
51801;DHT22;37855;53.204;6.568;2022-09-09T01:29:13;15.70;99.90
51801;DHT22;37855;53.204;6.568;2022-09-09T01:32:00;15.70;99.90
51801;DHT22;37855;53.204;6.568;2022-09-09T01:34:37;15.70;99.90
51801;DHT22;37855;53.204;6.568;2022-09-09T01:37:07;15.70;99.90
51801;DHT22;37855;53.204;6.568;2022-09-09T01:39:35;15.70;99.90
51801;DHT22;37855;53.204;6.568;2022-09-09T01:42:02;15.70;99.90
51801;DHT22;37855;53.204;6.568;2022-09-09T01:44:29;15.70;99.90
51801;DHT22;37855;53.204;6.568;2022-09-09T01:46:55;15.60;99.90
51801;DHT22;37855;53.204;6.568;2022-09-09T01:49:21;15.60;99.90
51801;DHT22;37855;53.204;6.568;2022-09-09T01:51:50;15.60;99.90
51801;DHT22;37855;53.204;6.568;2022-09-09T01:54:17;15.60;99.90
51801;DHT22;37855;53.204;6.568;2022-09-09T01:57:14;15.60;99.90
51801;DHT22;37855;53.204;6.568;2022-09-09T02:00:06;15.60;99.90
51801;DHT22;37855;53.204;6.568;2022-09-09T02:03:05;15.60;99.90
51801;DHT22;37855;53.204;6.568;2022-09-09T02:05:52;15.60;99.90
51801;DHT22;37855;53.204;6.568;2022-09-09T02:08:40;15.60;99.90
51801;DHT22;37855;53.204;6.568;2022-09-09T02:11:18;15.60;99.90
51801;DHT22;37855;53.204;6.568;2022-09-09T02:13:47;15.60;99.90
51801;DHT22;37855;53.204;6.568;2022-09-09T02:18:58;15.60;99.90
51801;DHT22;37855;53.204;6.568;2022-09-09T02:21:28;15.60;99.90
51801;DHT22;37855;53.204;6.568;2022-09-09T02:23:55;15.70;99.90
51801;DHT22;37855;53.204;6.568;2022-09-09T02:26:23;15.80;99.90
51801;DHT22;37855;53.204;6.568;2022-09-09T02:28:51;15.70;99.90
51801;DHT22;37855;53.204;6.568;2022-09-09T02:31:20;15.70;99.90
51801;DHT22;37855;53.204;6.568;2022-09-09T02:33:54;15.70;99.90
51801;DHT22;37855;53.204;6.568;2022-09-09T02:36:24;15.60;99.90
51801;DHT22;37855;53.204;6.568;2022-09-09T02:38:51;15.70;99.90
51801;DHT22;37855;53.204;6.568;2022-09-09T02:41:33;15.70;99.90
51801;DHT22;37855;53.204;6.568;2022-09-09T02:44:00;15.70;99.90
51801;DHT22;37855;53.204;6.568;2022-09-09T02:52:06;15.60;99.90
51801;DHT22;37855;53.204;6.568;2022-09-09T02:54:34;15.60;99.90
51801;DHT22;37855;53.204;6.568;2022-09-09T02:57:12;15.70;99.90
51801;DHT22;37855;53.204;6.568;2022-09-09T02:59:39;15.70;99.90
51801;DHT22;37855;53.204;6.568;2022-09-09T03:02:05;15.70;99.90
51801;DHT22;37855;53.204;6.568;2022-09-09T03:04:31;15.70;99.90
51801;DHT22;37855;53.204;6.568;2022-09-09T03:06:58;15.70;99.90
51801;DHT22;37855;53.204;6.568;2022-09-09T03:09:24;15.70;99.90
51801;DHT22;37855;53.204;6.568;2022-09-09T03:11:51;15.70;99.90
51801;DHT22;37855;53.204;6.568;2022-09-09T03:14:17;15.70;99.90
51801;DHT22;37855;53.204;6.568;2022-09-09T03:16:46;15.70;99.90
51801;DHT22;37855;53.204;6.568;2022-09-09T03:19:12;15.80;99.90
51801;DHT22;37855;53.204;6.568;2022-09-09T03:21:38;15.60;99.90
51801;DHT22;37855;53.204;6.568;2022-09-09T03:24:04;15.70;99.90
51801;DHT22;37855;53.204;6.568;2022-09-09T03:26:30;15.70;99.90
51801;DHT22;37855;53.204;6.568;2022-09-09T03:28:57;15.70;99.90
51801;DHT22;37855;53.204;6.568;2022-09-09T03:31:22;15.70;99.90
51801;DHT22;37855;53.204;6.568;2022-09-09T03:33:48;15.70;99.90
51801;DHT22;37855;53.204;6.568;2022-09-09T03:36:14;15.70;99.90
51801;DHT22;37855;53.204;6.568;2022-09-09T03:38:41;15.70;99.90
51801;DHT22;37855;53.204;6.568;2022-09-09T03:41:06;15.70;99.90
51801;DHT22;37855;53.204;6.568;2022-09-09T03:43:33;15.70;99.90
51801;DHT22;37855;53.204;6.568;2022-09-09T03:45:59;15.80;99.90
51801;DHT22;37855;53.204;6.568;2022-09-09T03:48:25;15.80;99.90
51801;DHT22;37855;53.204;6.568;2022-09-09T03:50:53;15.70;99.90
51801;DHT22;37855;53.204;6.568;2022-09-09T03:53:21;15.80;99.90
51801;DHT22;37855;53.204;6.568;2022-09-09T03:55:48;15.80;99.90
51801;DHT22;37855;53.204;6.568;2022-09-09T03:58:16;15.70;99.90
51801;DHT22;37855;53.204;6.568;2022-09-09T04:01:11;15.80;99.90
51801;DHT22;37855;53.204;6.568;2022-09-09T04:03:40;15.80;99.90
51801;DHT22;37855;53.204;6.568;2022-09-09T04:06:08;15.80;99.90
51801;DHT22;37855;53.204;6.568;2022-09-09T04:08:35;15.80;99.90
51801;DHT22;37855;53.204;6.568;2022-09-09T04:11:02;15.80;99.90
51801;DHT22;37855;53.204;6.568;2022-09-09T04:13:36;15.80;99.90
51801;DHT22;37855;53.204;6.568;2022-09-09T04:16:04;15.80;99.90
51801;DHT22;37855;53.204;6.568;2022-09-09T04:18:30;15.90;99.90
51801;DHT22;37855;53.204;6.568;2022-09-09T04:20:57;15.90;99.90
51801;DHT22;37855;53.204;6.568;2022-09-09T04:23:24;15.90;99.90
51801;DHT22;37855;53.204;6.568;2022-09-09T04:25:52;15.90;99.90
51801;DHT22;37855;53.204;6.568;2022-09-09T04:28:19;15.90;99.90
51801;DHT22;37855;53.204;6.568;2022-09-09T04:30:45;15.90;99.90
51801;DHT22;37855;53.204;6.568;2022-09-09T04:33:12;15.90;99.90
51801;DHT22;37855;53.204;6.568;2022-09-09T04:35:39;15.90;99.90
51801;DHT22;37855;53.204;6.568;2022-09-09T04:38:05;15.90;99.90
51801;DHT22;37855;53.204;6.568;2022-09-09T04:40:35;15.90;99.90
51801;DHT22;37855;53.204;6.568;2022-09-09T04:43:02;15.90;99.90
51801;DHT22;37855;53.204;6.568;2022-09-09T04:45:29;15.90;99.90
51801;DHT22;37855;53.204;6.568;2022-09-09T04:47:55;15.90;99.90
51801;DHT22;37855;53.204;6.568;2022-09-09T04:50:21;15.90;99.90
51801;DHT22;37855;53.204;6.568;2022-09-09T04:52:46;15.90;99.90
51801;DHT22;37855;53.204;6.568;2022-09-09T04:55:13;15.90;99.90
51801;DHT22;37855;53.204;6.568;2022-09-09T04:57:39;15.90;99.90
51801;DHT22;37855;53.204;6.568;2022-09-09T05:00:05;15.90;99.90
51801;DHT22;37855;53.204;6.568;2022-09-09T05:02:31;15.90;99.90
51801;DHT22;37855;53.204;6.568;2022-09-09T05:04:57;15.90;99.90
51801;DHT22;37855;53.204;6.568;2022-09-09T05:07:23;15.90;99.90
51801;DHT22;37855;53.204;6.568;2022-09-09T05:09:49;15.90;99.90
51801;DHT22;37855;53.204;6.568;2022-09-09T05:12:16;15.90;99.90
51801;DHT22;37855;53.204;6.568;2022-09-09T05:14:44;15.90;99.90
51801;DHT22;37855;53.204;6.568;2022-09-09T05:17:10;16.00;99.90
51801;DHT22;37855;53.204;6.568;2022-09-09T05:19:36;15.90;99.90
51801;DHT22;37855;53.204;6.568;2022-09-09T05:22:02;15.90;99.90
51801;DHT22;37855;53.204;6.568;2022-09-09T05:24:29;15.90;99.90
51801;DHT22;37855;53.204;6.568;2022-09-09T05:26:58;15.90;99.90
51801;DHT22;37855;53.204;6.568;2022-09-09T05:29:27;16.00;99.90
51801;DHT22;37855;53.204;6.568;2022-09-09T05:31:52;15.90;99.90
51801;DHT22;37855;53.204;6.568;2022-09-09T05:34:18;15.90;99.90
51801;DHT22;37855;53.204;6.568;2022-09-09T05:36:44;15.90;99.90
51801;DHT22;37855;53.204;6.568;2022-09-09T05:39:10;15.90;99.90
51801;DHT22;37855;53.204;6.568;2022-09-09T05:41:37;15.90;99.90
51801;DHT22;37855;53.204;6.568;2022-09-09T05:44:03;15.90;99.90
51801;DHT22;37855;53.204;6.568;2022-09-09T05:46:29;15.90;99.90
51801;DHT22;37855;53.204;6.568;2022-09-09T05:48:54;15.90;99.90
51801;DHT22;37855;53.204;6.568;2022-09-09T05:51:23;15.90;99.90
51801;DHT22;37855;53.204;6.568;2022-09-09T05:53:50;16.00;99.90
51801;DHT22;37855;53.204;6.568;2022-09-09T05:56:21;15.90;99.90
51801;DHT22;37855;53.204;6.568;2022-09-09T05:58:49;16.00;99.90
51801;DHT22;37855;53.204;6.568;2022-09-09T06:01:26;16.00;99.90
51801;DHT22;37855;53.204;6.568;2022-09-09T06:03:53;16.00;99.90
51801;DHT22;37855;53.204;6.568;2022-09-09T06:06:24;16.00;99.90
51801;DHT22;37855;53.204;6.568;2022-09-09T06:08:52;16.00;99.90
51801;DHT22;37855;53.204;6.568;2022-09-09T06:11:23;16.00;99.90
51801;DHT22;37855;53.204;6.568;2022-09-09T06:13:49;16.00;99.90
51801;DHT22;37855;53.204;6.568;2022-09-09T06:16:22;16.00;99.90
51801;DHT22;37855;53.204;6.568;2022-09-09T06:18:51;16.00;99.90
51801;DHT22;37855;53.204;6.568;2022-09-09T06:21:20;16.00;99.90
51801;DHT22;37855;53.204;6.568;2022-09-09T06:23:46;16.10;99.90
51801;DHT22;37855;53.204;6.568;2022-09-09T06:26:17;16.10;99.90
51801;DHT22;37855;53.204;6.568;2022-09-09T06:28:43;16.10;99.90
51801;DHT22;37855;53.204;6.568;2022-09-09T06:31:11;16.10;99.90
51801;DHT22;37855;53.204;6.568;2022-09-09T06:33:39;16.10;99.90
51801;DHT22;37855;53.204;6.568;2022-09-09T06:36:07;16.10;99.90
51801;DHT22;37855;53.204;6.568;2022-09-09T06:38:35;16.10;99.90
51801;DHT22;37855;53.204;6.568;2022-09-09T06:41:01;16.00;99.90
51801;DHT22;37855;53.204;6.568;2022-09-09T06:43:27;16.10;99.90
51801;DHT22;37855;53.204;6.568;2022-09-09T06:46:00;16.10;99.90
51801;DHT22;37855;53.204;6.568;2022-09-09T06:48:27;16.20;99.90
51801;DHT22;37855;53.204;6.568;2022-09-09T06:53:35;16.30;99.90
51801;DHT22;37855;53.204;6.568;2022-09-09T06:58:40;16.30;99.90
51801;DHT22;37855;53.204;6.568;2022-09-09T07:01:08;16.30;99.90
51801;DHT22;37855;53.204;6.568;2022-09-09T07:03:35;16.40;99.90
51801;DHT22;37855;53.204;6.568;2022-09-09T07:06:01;16.40;99.90
51801;DHT22;37855;53.204;6.568;2022-09-09T07:08:27;16.40;99.90
51801;DHT22;37855;53.204;6.568;2022-09-09T07:10:53;16.40;99.90
51801;DHT22;37855;53.204;6.568;2022-09-09T07:13:25;16.50;99.90
51801;DHT22;37855;53.204;6.568;2022-09-09T07:15:52;16.50;99.90
51801;DHT22;37855;53.204;6.568;2022-09-09T07:18:19;16.50;99.90
51801;DHT22;37855;53.204;6.568;2022-09-09T07:20:53;16.50;99.90
51801;DHT22;37855;53.204;6.568;2022-09-09T07:23:19;16.50;99.90
51801;DHT22;37855;53.204;6.568;2022-09-09T07:25:45;16.60;99.90
51801;DHT22;37855;53.204;6.568;2022-09-09T07:28:11;16.60;99.90
51801;DHT22;37855;53.204;6.568;2022-09-09T07:30:37;16.60;99.90
51801;DHT22;37855;53.204;6.568;2022-09-09T07:33:02;16.70;99.90
51801;DHT22;37855;53.204;6.568;2022-09-09T07:35:28;16.70;99.90
51801;DHT22;37855;53.204;6.568;2022-09-09T07:37:54;16.80;99.90
51801;DHT22;37855;53.204;6.568;2022-09-09T07:40:20;16.80;99.90
51801;DHT22;37855;53.204;6.568;2022-09-09T07:42:47;16.80;99.90
51801;DHT22;37855;53.204;6.568;2022-09-09T07:45:13;16.80;99.90
51801;DHT22;37855;53.204;6.568;2022-09-09T07:47:40;16.90;99.90
51801;DHT22;37855;53.204;6.568;2022-09-09T07:50:08;17.00;99.90
51801;DHT22;37855;53.204;6.568;2022-09-09T07:52:35;16.90;99.90
51801;DHT22;37855;53.204;6.568;2022-09-09T07:55:01;17.00;99.90
51801;DHT22;37855;53.204;6.568;2022-09-09T07:57:28;17.00;99.90
51801;DHT22;37855;53.204;6.568;2022-09-09T07:59:56;17.10;99.90
51801;DHT22;37855;53.204;6.568;2022-09-09T08:02:25;17.10;99.90
51801;DHT22;37855;53.204;6.568;2022-09-09T08:04:53;17.20;99.90
51801;DHT22;37855;53.204;6.568;2022-09-09T08:07:18;17.30;99.90
51801;DHT22;37855;53.204;6.568;2022-09-09T08:09:46;17.30;99.90
51801;DHT22;37855;53.204;6.568;2022-09-09T08:12:12;17.30;99.90
51801;DHT22;37855;53.204;6.568;2022-09-09T08:14:38;17.40;99.90
51801;DHT22;37855;53.204;6.568;2022-09-09T08:17:05;17.50;99.90
51801;DHT22;37855;53.204;6.568;2022-09-09T08:19:31;17.50;99.90
51801;DHT22;37855;53.204;6.568;2022-09-09T08:21:59;17.50;99.90
51801;DHT22;37855;53.204;6.568;2022-09-09T08:24:27;17.60;99.90
51801;DHT22;37855;53.204;6.568;2022-09-09T08:26:52;17.60;99.90
51801;DHT22;37855;53.204;6.568;2022-09-09T08:29:19;17.70;99.90
51801;DHT22;37855;53.204;6.568;2022-09-09T08:31:53;17.70;99.90
51801;DHT22;37855;53.204;6.568;2022-09-09T08:34:23;17.80;99.90
51801;DHT22;37855;53.204;6.568;2022-09-09T08:36:54;17.90;99.90
51801;DHT22;37855;53.204;6.568;2022-09-09T08:39:21;18.00;99.90
51801;DHT22;37855;53.204;6.568;2022-09-09T08:42:24;18.20;99.90
51801;DHT22;37855;53.204;6.568;2022-09-09T08:45:05;18.30;99.90
51801;DHT22;37855;53.204;6.568;2022-09-09T08:48:29;18.30;99.90
51801;DHT22;37855;53.204;6.568;2022-09-09T08:50:32;18.30;99.90
51801;DHT22;37855;53.204;6.568;2022-09-09T08:53:20;18.40;99.90
51801;DHT22;37855;53.204;6.568;2022-09-09T08:55:52;18.40;99.90
51801;DHT22;37855;53.204;6.568;2022-09-09T08:58:26;18.50;99.90
51801;DHT22;37855;53.204;6.568;2022-09-09T09:01:00;18.50;99.90
51801;DHT22;37855;53.204;6.568;2022-09-09T09:11:38;18.50;99.90
51801;DHT22;37855;53.204;6.568;2022-09-09T09:14:18;18.50;99.90
51801;DHT22;37855;53.204;6.568;2022-09-09T09:17:04;18.50;99.90
51801;DHT22;37855;53.204;6.568;2022-09-09T09:19:33;18.50;99.90
51801;DHT22;37855;53.204;6.568;2022-09-09T09:22:05;18.60;99.90
51801;DHT22;37855;53.204;6.568;2022-09-09T09:24:54;18.60;99.90
51801;DHT22;37855;53.204;6.568;2022-09-09T09:29:55;18.70;99.90
51801;DHT22;37855;53.204;6.568;2022-09-09T09:32:26;18.70;99.90
51801;DHT22;37855;53.204;6.568;2022-09-09T09:34:58;18.70;99.90
51801;DHT22;37855;53.204;6.568;2022-09-09T09:37:30;18.80;99.90
51801;DHT22;37855;53.204;6.568;2022-09-09T09:40:07;19.00;99.90
51801;DHT22;37855;53.204;6.568;2022-09-09T09:42:33;19.10;99.90
51801;DHT22;37855;53.204;6.568;2022-09-09T09:45:12;19.10;99.90
51801;DHT22;37855;53.204;6.568;2022-09-09T09:47:40;19.20;99.90
51801;DHT22;37855;53.204;6.568;2022-09-09T09:50:17;19.20;99.90
51801;DHT22;37855;53.204;6.568;2022-09-09T09:52:56;19.20;99.90
51801;DHT22;37855;53.204;6.568;2022-09-09T09:55:23;19.20;99.90
51801;DHT22;37855;53.204;6.568;2022-09-09T09:57:49;19.30;99.90
51801;DHT22;37855;53.204;6.568;2022-09-09T10:00:21;19.40;99.90
51801;DHT22;37855;53.204;6.568;2022-09-09T10:02:48;19.40;99.90
51801;DHT22;37855;53.204;6.568;2022-09-09T10:05:21;19.50;99.90
51801;DHT22;37855;53.204;6.568;2022-09-09T10:08:13;19.50;99.90
51801;DHT22;37855;53.204;6.568;2022-09-09T10:10:47;19.50;99.90
51801;DHT22;37855;53.204;6.568;2022-09-09T10:13:20;19.40;99.90
51801;DHT22;37855;53.204;6.568;2022-09-09T10:16:06;19.40;99.90
51801;DHT22;37855;53.204;6.568;2022-09-09T10:19:09;19.40;99.90
51801;DHT22;37855;53.204;6.568;2022-09-09T10:27:53;19.30;99.90
51801;DHT22;37855;53.204;6.568;2022-09-09T10:30:39;19.30;99.90
51801;DHT22;37855;53.204;6.568;2022-09-09T10:33:11;19.30;99.90
51801;DHT22;37855;53.204;6.568;2022-09-09T10:35:50;19.20;99.90
51801;DHT22;37855;53.204;6.568;2022-09-09T10:38:41;19.20;99.90
51801;DHT22;37855;53.204;6.568;2022-09-09T10:55:00;19.30;99.90
51801;DHT22;37855;53.204;6.568;2022-09-09T10:57:36;19.30;99.90
51801;DHT22;37855;53.204;6.568;2022-09-09T11:02:41;19.40;99.90
51801;DHT22;37855;53.204;6.568;2022-09-09T11:05:20;19.50;99.90
51801;DHT22;37855;53.204;6.568;2022-09-09T11:13:19;19.70;99.90
51801;DHT22;37855;53.204;6.568;2022-09-09T11:15:50;19.70;99.90
51801;DHT22;37855;53.204;6.568;2022-09-09T11:18:20;19.80;99.90
51801;DHT22;37855;53.204;6.568;2022-09-09T11:20:53;19.80;99.90
51801;DHT22;37855;53.204;6.568;2022-09-09T11:23:27;19.80;99.90
51801;DHT22;37855;53.204;6.568;2022-09-09T11:26:00;19.90;99.90
51801;DHT22;37855;53.204;6.568;2022-09-09T11:31:21;20.10;99.90
51801;DHT22;37855;53.204;6.568;2022-09-09T11:39:30;20.70;99.90
51801;DHT22;37855;53.204;6.568;2022-09-09T11:42:29;20.90;99.90
51801;DHT22;37855;53.204;6.568;2022-09-09T11:44:53;21.00;99.90
51801;DHT22;37855;53.204;6.568;2022-09-09T11:47:28;21.10;99.90
51801;DHT22;37855;53.204;6.568;2022-09-09T11:52:42;21.30;99.90
51801;DHT22;37855;53.204;6.568;2022-09-09T11:55:31;21.30;99.90
51801;DHT22;37855;53.204;6.568;2022-09-09T11:58:04;21.20;99.90
51801;DHT22;37855;53.204;6.568;2022-09-09T12:00:37;21.20;99.90
51801;DHT22;37855;53.204;6.568;2022-09-09T12:03:30;21.20;99.90
51801;DHT22;37855;53.204;6.568;2022-09-09T12:05:52;21.30;99.90
51801;DHT22;37855;53.204;6.568;2022-09-09T12:08:27;21.40;99.90
51801;DHT22;37855;53.204;6.568;2022-09-09T12:10:56;21.40;99.90
51801;DHT22;37855;53.204;6.568;2022-09-09T12:13:24;21.30;99.90
51801;DHT22;37855;53.204;6.568;2022-09-09T12:15:53;21.40;99.90
51801;DHT22;37855;53.204;6.568;2022-09-09T12:18:39;21.40;99.90
51801;DHT22;37855;53.204;6.568;2022-09-09T12:21:18;21.40;99.90
51801;DHT22;37855;53.204;6.568;2022-09-09T12:24:11;21.40;99.90
51801;DHT22;37855;53.204;6.568;2022-09-09T12:26:43;21.40;99.60
51801;DHT22;37855;53.204;6.568;2022-09-09T12:34:41;21.40;99.90
51801;DHT22;37855;53.204;6.568;2022-09-09T12:37:15;21.40;99.90
51801;DHT22;37855;53.204;6.568;2022-09-09T12:39:53;21.40;99.90
51801;DHT22;37855;53.204;6.568;2022-09-09T12:42:21;21.40;99.90
51801;DHT22;37855;53.204;6.568;2022-09-09T12:44:57;21.40;99.90
51801;DHT22;37855;53.204;6.568;2022-09-09T12:47:37;21.40;99.90
51801;DHT22;37855;53.204;6.568;2022-09-09T12:50:15;21.50;99.90
51801;DHT22;37855;53.204;6.568;2022-09-09T12:52:42;21.60;99.40
51801;DHT22;37855;53.204;6.568;2022-09-09T12:55:17;21.50;99.50
51801;DHT22;37855;53.204;6.568;2022-09-09T12:57:44;21.50;99.40
51801;DHT22;37855;53.204;6.568;2022-09-09T13:00:23;21.60;99.40
51801;DHT22;37855;53.204;6.568;2022-09-09T13:02:52;21.60;98.30
51801;DHT22;37855;53.204;6.568;2022-09-09T13:05:36;21.60;98.40
51801;DHT22;37855;53.204;6.568;2022-09-09T13:08:08;21.70;98.70
51801;DHT22;37855;53.204;6.568;2022-09-09T13:10:42;21.80;98.60
51801;DHT22;37855;53.204;6.568;2022-09-09T13:13:17;21.80;98.40
51801;DHT22;37855;53.204;6.568;2022-09-09T13:15:56;21.80;98.50
51801;DHT22;37855;53.204;6.568;2022-09-09T13:18:30;21.90;98.60
51801;DHT22;37855;53.204;6.568;2022-09-09T13:20:58;21.80;98.50
51801;DHT22;37855;53.204;6.568;2022-09-09T13:23:31;21.80;97.80
51801;DHT22;37855;53.204;6.568;2022-09-09T13:26:00;21.80;97.80
51801;DHT22;37855;53.204;6.568;2022-09-09T13:28:28;21.80;98.20
51801;DHT22;37855;53.204;6.568;2022-09-09T13:31:01;21.80;98.00
51801;DHT22;37855;53.204;6.568;2022-09-09T13:33:37;21.80;97.10
51801;DHT22;37855;53.204;6.568;2022-09-09T13:36:06;21.80;97.50
51801;DHT22;37855;53.204;6.568;2022-09-09T13:38:36;21.70;97.70
51801;DHT22;37855;53.204;6.568;2022-09-09T13:41:08;21.70;97.80
51801;DHT22;37855;53.204;6.568;2022-09-09T13:43:43;21.70;97.40
51801;DHT22;37855;53.204;6.568;2022-09-09T13:46:34;21.70;97.60
51801;DHT22;37855;53.204;6.568;2022-09-09T13:51:42;21.60;97.70
51801;DHT22;37855;53.204;6.568;2022-09-09T13:54:11;21.60;97.70
51801;DHT22;37855;53.204;6.568;2022-09-09T13:56:39;21.50;97.90
51801;DHT22;37855;53.204;6.568;2022-09-09T13:59:09;21.50;98.00
51801;DHT22;37855;53.204;6.568;2022-09-09T14:01:35;21.50;98.00
51801;DHT22;37855;53.204;6.568;2022-09-09T14:04:03;21.60;97.80
51801;DHT22;37855;53.204;6.568;2022-09-09T14:06:29;21.70;97.20
51801;DHT22;37855;53.204;6.568;2022-09-09T14:08:55;21.70;96.80
51801;DHT22;37855;53.204;6.568;2022-09-09T14:11:21;21.80;96.60
51801;DHT22;37855;53.204;6.568;2022-09-09T14:13:50;21.80;96.50
51801;DHT22;37855;53.204;6.568;2022-09-09T14:16:18;21.90;95.90
51801;DHT22;37855;53.204;6.568;2022-09-09T14:18:45;21.80;96.30
51801;DHT22;37855;53.204;6.568;2022-09-09T14:21:11;21.80;95.70
51801;DHT22;37855;53.204;6.568;2022-09-09T14:23:37;21.70;96.00
51801;DHT22;37855;53.204;6.568;2022-09-09T14:26:07;21.70;96.60
51801;DHT22;37855;53.204;6.568;2022-09-09T14:28:33;21.80;96.80
51801;DHT22;37855;53.204;6.568;2022-09-09T14:31:00;21.90;96.30
51801;DHT22;37855;53.204;6.568;2022-09-09T14:33:26;21.90;96.00
51801;DHT22;37855;53.204;6.568;2022-09-09T14:36:01;21.90;96.10
51801;DHT22;37855;53.204;6.568;2022-09-09T14:38:33;21.90;96.40
51801;DHT22;37855;53.204;6.568;2022-09-09T14:41:00;21.80;96.50
51801;DHT22;37855;53.204;6.568;2022-09-09T14:43:28;21.80;96.20
51801;DHT22;37855;53.204;6.568;2022-09-09T14:45:55;21.70;96.40
51801;DHT22;37855;53.204;6.568;2022-09-09T14:48:21;21.60;96.20
51801;DHT22;37855;53.204;6.568;2022-09-09T14:50:46;21.50;96.20
51801;DHT22;37855;53.204;6.568;2022-09-09T14:53:12;21.40;96.30
51801;DHT22;37855;53.204;6.568;2022-09-09T14:55:38;21.30;96.10
51801;DHT22;37855;53.204;6.568;2022-09-09T14:58:04;21.30;96.10
51801;DHT22;37855;53.204;6.568;2022-09-09T15:00:31;21.30;96.30
51801;DHT22;37855;53.204;6.568;2022-09-09T15:02:57;21.20;96.50
51801;DHT22;37855;53.204;6.568;2022-09-09T15:05:23;21.20;96.80
51801;DHT22;37855;53.204;6.568;2022-09-09T15:07:49;21.10;97.10
51801;DHT22;37855;53.204;6.568;2022-09-09T15:10:15;21.20;97.60
51801;DHT22;37855;53.204;6.568;2022-09-09T15:12:43;21.20;97.90
51801;DHT22;37855;53.204;6.568;2022-09-09T15:15:09;21.20;98.00
51801;DHT22;37855;53.204;6.568;2022-09-09T15:17:34;21.30;97.90
51801;DHT22;37855;53.204;6.568;2022-09-09T15:20:03;21.40;97.80
51801;DHT22;37855;53.204;6.568;2022-09-09T15:22:28;21.40;98.10
51801;DHT22;37855;53.204;6.568;2022-09-09T15:24:54;21.40;98.30
51801;DHT22;37855;53.204;6.568;2022-09-09T15:27:20;21.40;98.50
51801;DHT22;37855;53.204;6.568;2022-09-09T15:29:45;21.40;98.50
51801;DHT22;37855;53.204;6.568;2022-09-09T15:32:12;21.40;98.70
51801;DHT22;37855;53.204;6.568;2022-09-09T15:34:37;21.30;99.20
51801;DHT22;37855;53.204;6.568;2022-09-09T15:37:03;21.30;99.60
51801;DHT22;37855;53.204;6.568;2022-09-09T15:39:29;21.30;99.90
51801;DHT22;37855;53.204;6.568;2022-09-09T15:41:57;21.30;99.90
51801;DHT22;37855;53.204;6.568;2022-09-09T15:44:24;21.30;99.90
51801;DHT22;37855;53.204;6.568;2022-09-09T15:46:53;21.30;99.90
51801;DHT22;37855;53.204;6.568;2022-09-09T15:49:24;21.30;99.90
51801;DHT22;37855;53.204;6.568;2022-09-09T15:51:58;21.30;99.90
51801;DHT22;37855;53.204;6.568;2022-09-09T15:54:25;21.30;99.90
51801;DHT22;37855;53.204;6.568;2022-09-09T15:56:56;21.30;99.90
51801;DHT22;37855;53.204;6.568;2022-09-09T15:59:28;21.30;99.90
51801;DHT22;37855;53.204;6.568;2022-09-09T16:01:54;21.30;99.90
51801;DHT22;37855;53.204;6.568;2022-09-09T16:04:21;21.20;99.00
51801;DHT22;37855;53.204;6.568;2022-09-09T16:06:52;21.20;99.10
51801;DHT22;37855;53.204;6.568;2022-09-09T16:09:18;21.10;99.10
51801;DHT22;37855;53.204;6.568;2022-09-09T16:11:44;21.10;99.00
51801;DHT22;37855;53.204;6.568;2022-09-09T16:14:09;21.10;98.90
51801;DHT22;37855;53.204;6.568;2022-09-09T16:16:36;21.10;98.80
51801;DHT22;37855;53.204;6.568;2022-09-09T16:19:07;21.10;98.80
51801;DHT22;37855;53.204;6.568;2022-09-09T16:21:37;21.10;98.70
51801;DHT22;37855;53.204;6.568;2022-09-09T16:24:04;21.10;98.80
51801;DHT22;37855;53.204;6.568;2022-09-09T16:26:32;21.00;99.90
51801;DHT22;37855;53.204;6.568;2022-09-09T16:28:59;21.00;99.90
51801;DHT22;37855;53.204;6.568;2022-09-09T16:31:25;20.90;99.90
51801;DHT22;37855;53.204;6.568;2022-09-09T16:33:52;21.00;99.90
51801;DHT22;37855;53.204;6.568;2022-09-09T16:36:21;21.00;99.90
51801;DHT22;37855;53.204;6.568;2022-09-09T16:38:47;21.00;99.90
51801;DHT22;37855;53.204;6.568;2022-09-09T16:41:14;21.00;99.90
51801;DHT22;37855;53.204;6.568;2022-09-09T16:43:42;21.00;99.90
51801;DHT22;37855;53.204;6.568;2022-09-09T16:46:18;21.00;99.90
51801;DHT22;37855;53.204;6.568;2022-09-09T16:48:46;21.00;99.90
51801;DHT22;37855;53.204;6.568;2022-09-09T16:51:18;20.90;99.90
51801;DHT22;37855;53.204;6.568;2022-09-09T16:53:44;20.90;99.90
51801;DHT22;37855;53.204;6.568;2022-09-09T16:56:14;20.80;99.90
51801;DHT22;37855;53.204;6.568;2022-09-09T16:58:40;20.80;99.90
51801;DHT22;37855;53.204;6.568;2022-09-09T17:01:09;20.80;99.90
51801;DHT22;37855;53.204;6.568;2022-09-09T17:03:35;20.70;99.90
51801;DHT22;37855;53.204;6.568;2022-09-09T17:06:03;20.80;99.90
51801;DHT22;37855;53.204;6.568;2022-09-09T17:08:33;20.70;99.90
51801;DHT22;37855;53.204;6.568;2022-09-09T17:10:59;20.70;99.90
51801;DHT22;37855;53.204;6.568;2022-09-09T17:13:25;20.60;99.90
51801;DHT22;37855;53.204;6.568;2022-09-09T17:15:51;20.60;99.90
51801;DHT22;37855;53.204;6.568;2022-09-09T17:18:17;20.60;99.90
51801;DHT22;37855;53.204;6.568;2022-09-09T17:20:43;20.60;99.90
51801;DHT22;37855;53.204;6.568;2022-09-09T17:23:10;20.60;99.90
51801;DHT22;37855;53.204;6.568;2022-09-09T17:25:36;20.50;99.90
51801;DHT22;37855;53.204;6.568;2022-09-09T17:28:02;20.50;99.90
51801;DHT22;37855;53.204;6.568;2022-09-09T17:30:30;20.40;99.90
51801;DHT22;37855;53.204;6.568;2022-09-09T17:32:56;20.40;99.90
51801;DHT22;37855;53.204;6.568;2022-09-09T17:35:22;20.40;99.90
51801;DHT22;37855;53.204;6.568;2022-09-09T17:37:48;20.40;99.90
51801;DHT22;37855;53.204;6.568;2022-09-09T17:40:13;20.40;99.90